Gemini — C6AY8 — position and weather

sailwx.info

Track history (hours):
 
Tides and Currents Weather Stations Pressure Air Temp Water Temp Dewpoint Dewpoint Depression Visibility Wind Speed Wind Dir Waves Ship Positions

Gemini

Last reported at 2018-Jun-25 03:55 UTC. Time now 2018-Jun-25 14:16 UTC.
Position N 36°59' E 025°17'.

Length 164 m; draft 6 m.

Type: Passenger vessel. MMSI: 311000160.

Date/timePositionNaut miles runAvg speedWind from/ knotsBaromVisibWave heightAir tempDewpointWater temp
2018-Jun-25 03:55N 36°59' E 025°17'613.2
2018-Jun-25 03:30N 37°05' E 025°18'611.9
2018-Jun-25 03:00N 37°11' E 025°19'611.6
2018-Jun-25 02:30N 37°15' E 025°15'611.7
2018-Jun-25 02:00N 37°21' E 025°12'510.9
2018-Jun-25 01:30N 37°26' E 025°10'611.4
2018-Jun-25 01:00N 37°28' E 025°16'2 4.6
2018-Jun-25 00:30N 37°28' E 025°19'0 0.0
2018-Jun-25 00:00N 37°28' E 025°19'0 0.0
2018-Jun-24 23:30N 37°28' E 025°19'0 0.0
2018-Jun-24 22:54N 37°28' E 025°19'0 0.0
2018-Jun-24 22:30N 37°28' E 025°19'0 0.0
2018-Jun-24 22:00N 37°28' E 025°19'0 0.0
2018-Jun-24 21:24N 37°28' E 025°19'0 0.0
2018-Jun-24 21:00N 37°28' E 025°19'0 0.0
2018-Jun-24 20:30N 37°28' E 025°19'0 0.0
2018-Jun-24 20:00N 37°28' E 025°19'0 0.0
2018-Jun-24 19:27N 37°28' E 025°19'0 0.0
2018-Jun-24 19:00N 37°28' E 025°19'0 0.0
2018-Jun-24 18:30N 37°28' E 025°19'0 0.0
2018-Jun-24 18:00N 37°28' E 025°19'6 8.5
2018-Jun-24 17:17N 37°33' E 025°23'516.3
2018-Jun-24 17:00N 37°37' E 025°27'816.1
2018-Jun-24 16:30N 37°42' E 025°34'  
2018-Jun-22 04:03N 36°59' E 025°17'012.7
2018-Jun-22 04:01N 36°60' E 025°17'612.7
2018-Jun-22 03:31N 37°06' E 025°19'611.9
2018-Jun-22 03:01N 37°12' E 025°18'612.2
2018-Jun-22 02:31N 37°17' E 025°14'612.2
2018-Jun-22 02:00N 37°23' E 025°11'5 9.9
2018-Jun-22 01:31N 37°27' E 025°12'510.9
2018-Jun-22 01:00N 37°28' E 025°19'0 0.2
2018-Jun-22 00:29N 37°28' E 025°19'0 0.0
2018-Jun-21 23:59N 37°28' E 025°19'0 0.0
2018-Jun-21 23:26N 37°28' E 025°19'0 0.0
2018-Jun-21 22:59N 37°28' E 025°19'0 0.0
2018-Jun-21 22:23N 37°28' E 025°19'0 0.0
2018-Jun-21 21:59N 37°28' E 025°19'0 0.0
2018-Jun-21 21:29N 37°28' E 025°19'0 0.0
2018-Jun-21 20:59N 37°28' E 025°19'0 0.0
2018-Jun-21 20:29N 37°28' E 025°19'0 0.0
2018-Jun-21 19:59N 37°28' E 025°19'0 0.0
2018-Jun-21 19:29N 37°28' E 025°19'0 0.0
2018-Jun-21 18:59N 37°28' E 025°19'0 0.0
2018-Jun-21 18:29N 37°28' E 025°19'0 0.0
2018-Jun-21 17:59N 37°28' E 025°19'0 0.0
2018-Jun-21 17:29N 37°28' E 025°19'0 0.0
2018-Jun-21 16:59N 37°28' E 025°19'0 0.2
2018-Jun-21 16:31N 37°28' E 025°19'510.1
2018-Jun-21 15:58N 37°33' E 025°22'715.6
2018-Jun-21 15:30N 37°38' E 025°29'815.8
2018-Jun-21 14:59N 37°43' E 025°36'84 4.0
2018-Jun-20 17:56N 37°37' E 023°50'613.8
2018-Jun-20 17:31N 37°39' E 023°43'713.9
2018-Jun-20 17:01N 37°45' E 023°39'714.7
2018-Jun-20 16:30N 37°52' E 023°37'4 8.7
2018-Jun-20 16:00N 37°56' E 023°38'0 0.0
2018-Jun-20 15:30N 37°56' E 023°38'0 0.0
2018-Jun-20 15:00N 37°56' E 023°38'0 0.0
2018-Jun-20 14:30N 37°56' E 023°38'0 0.0
2018-Jun-20 14:00N 37°56' E 023°38'0 0.0
2018-Jun-20 13:30N 37°56' E 023°38'0 0.0
2018-Jun-20 13:00N 37°56' E 023°38'0 0.0
2018-Jun-20 12:30N 37°56' E 023°38'0 0.0
2018-Jun-20 12:00N 37°56' E 023°38'0 0.0
2018-Jun-20 11:30N 37°56' E 023°38'0 0.0
2018-Jun-20 11:00N 37°56' E 023°38'0 0.0
2018-Jun-20 10:30N 37°56' E 023°38'0 0.0
2018-Jun-20 10:00N 37°56' E 023°38'0 0.0
2018-Jun-20 09:30N 37°56' E 023°38'0 0.0
2018-Jun-20 09:00N 37°56' E 023°38'0 0.0
2018-Jun-20 08:30N 37°56' E 023°38'0 0.0
2018-Jun-20 08:00N 37°56' E 023°38'0 0.0
2018-Jun-20 07:30N 37°56' E 023°38'1 2.9
2018-Jun-20 07:00N 37°55' E 023°37'713.5
2018-Jun-20 06:31N 37°49' E 023°41'815.7
2018-Jun-20 06:01N 37°42' E 023°45'815.5
2018-Jun-20 05:30N 37°38' E 023°53'4315.6
2018-Jun-20 02:44N 37°23' E 024°44'416.5
2018-Jun-20 02:31N 37°21' E 024°48'816.4
2018-Jun-20 02:01N 37°19' E 024°58'816.7
2018-Jun-20 01:31N 37°18' E 025°08'816.5
2018-Jun-20 01:01N 37°16' E 025°19'816.5
2018-Jun-20 00:31N 37°15' E 025°29'816.0
2018-Jun-20 00:00N 37°13' E 025°39'22 0.5
2018-Jun-18 03:57N 36°59' E 025°17'613.7
2018-Jun-18 03:30N 37°05' E 025°19'610.9
2018-Jun-18 03:00N 37°11' E 025°18'611.6
2018-Jun-18 02:30N 37°16' E 025°15'611.7
2018-Jun-18 02:00N 37°21' E 025°12'510.8
2018-Jun-18 01:30N 37°26' E 025°10'611.3
2018-Jun-18 01:00N 37°28' E 025°17'2 3.2
2018-Jun-18 00:26N 37°28' E 025°19'0 0.0
2018-Jun-17 23:59N 37°28' E 025°19'0 0.0
2018-Jun-17 23:29N 37°28' E 025°19'0 0.0
2018-Jun-17 22:59N 37°28' E 025°19'0 0.0
2018-Jun-17 22:29N 37°28' E 025°19'0 0.0
2018-Jun-17 21:59N 37°28' E 025°19'0 0.0
2018-Jun-17 21:29N 37°28' E 025°19'0 0.0
2018-Jun-17 20:59N 37°28' E 025°19'0 0.0
2018-Jun-17 20:29N 37°28' E 025°19'0 0.0
2018-Jun-17 19:59N 37°28' E 025°19'0 0.0
2018-Jun-17 19:29N 37°28' E 025°19'0 0.0
2018-Jun-17 18:59N 37°28' E 025°19'0 0.0
2018-Jun-17 18:29N 37°28' E 025°19'0 0.0
2018-Jun-17 17:59N 37°28' E 025°19'0 0.0
2018-Jun-17 17:29N 37°28' E 025°19'0 0.0
2018-Jun-17 17:00N 37°28' E 025°19'0 0.3
2018-Jun-17 16:30N 37°28' E 025°19'612.3
2018-Jun-17 16:00N 37°33' E 025°22'815.9
2018-Jun-17 15:30N 37°39' E 025°30'816.1
2018-Jun-17 15:00N 37°44' E 025°37'84 3.8
2018-Jun-16 17:06N 37°37' E 023°51'112.9
2018-Jun-16 17:00N 37°37' E 023°50'612.6
2018-Jun-16 16:30N 37°40' E 023°42'510.9
2018-Jun-16 16:00N 37°45' E 023°39'5 9.5
2018-Jun-16 15:30N 37°49' E 023°37'611.9
2018-Jun-16 15:00N 37°55' E 023°37'2 3.2
2018-Jun-16 14:31N 37°56' E 023°38'0 0.0
2018-Jun-16 14:01N 37°56' E 023°38'0 0.0
2018-Jun-16 13:29N 37°56' E 023°38'0 0.0
2018-Jun-16 12:59N 37°56' E 023°38'0 0.0
2018-Jun-16 12:29N 37°56' E 023°38'0 0.0
2018-Jun-16 11:59N 37°56' E 023°38'0 0.0
2018-Jun-16 11:29N 37°56' E 023°38'0 0.0
2018-Jun-16 10:59N 37°56' E 023°38'0 0.0
2018-Jun-16 10:29N 37°56' E 023°38'0 0.0
2018-Jun-16 09:59N 37°56' E 023°38'0 0.0
2018-Jun-16 09:29N 37°56' E 023°38'0 0.0
2018-Jun-16 08:59N 37°56' E 023°38'0 0.0
2018-Jun-16 08:29N 37°56' E 023°38'0 0.0
2018-Jun-16 07:59N 37°56' E 023°38'0 0.0
2018-Jun-16 07:29N 37°56' E 023°38'0 0.0
2018-Jun-16 06:59N 37°56' E 023°38'0 0.0
2018-Jun-16 06:29N 37°56' E 023°38'0 1.0
2018-Jun-16 06:00N 37°56' E 023°37'3 6.6
2018-Jun-16 05:30N 37°53' E 023°38'611.1
2018-Jun-16 05:00N 37°48' E 023°41'611.1
2018-Jun-16 04:30N 37°43' E 023°44'611.2
2018-Jun-16 04:00N 37°38' E 023°46'82 3.4
2018-Jun-15 03:56N 36°59' E 025°17'  
Track history (hours):
 
Tides and Currents Weather Stations Pressure Air Temp Water Temp Dewpoint Dewpoint Depression Visibility Wind Speed Wind Dir Waves Ship Positions

Gemini

Last reported at 2018-Jun-25 03:55 UTC. Time now 2018-Jun-25 14:16 UTC.
Position N 36°59' E 025°17'.

Length 164 m; draft 6 m.

Type: Passenger vessel. MMSI: 311000160.

Date/timePositionNaut miles runAvg speedWind from/ knotsBaromVisibWave heightAir tempDewpointWater temp
2018-Jun-25 03:55N 36°59' E 025°17'613.2
2018-Jun-25 03:30N 37°05' E 025°18'611.9
2018-Jun-25 03:00N 37°11' E 025°19'611.6
2018-Jun-25 02:30N 37°15' E 025°15'611.7
2018-Jun-25 02:00N 37°21' E 025°12'510.9
2018-Jun-25 01:30N 37°26' E 025°10'611.4
2018-Jun-25 01:00N 37°28' E 025°16'2 4.6
2018-Jun-25 00:30N 37°28' E 025°19'0 0.0
2018-Jun-25 00:00N 37°28' E 025°19'0 0.0
2018-Jun-24 23:30N 37°28' E 025°19'0 0.0
2018-Jun-24 22:54N 37°28' E 025°19'0 0.0
2018-Jun-24 22:30N 37°28' E 025°19'0 0.0
2018-Jun-24 22:00N 37°28' E 025°19'0 0.0
2018-Jun-24 21:24N 37°28' E 025°19'0 0.0
2018-Jun-24 21:00N 37°28' E 025°19'0 0.0
2018-Jun-24 20:30N 37°28' E 025°19'0 0.0
2018-Jun-24 20:00N 37°28' E 025°19'0 0.0
2018-Jun-24 19:27N 37°28' E 025°19'0 0.0
2018-Jun-24 19:00N 37°28' E 025°19'0 0.0
2018-Jun-24 18:30N 37°28' E 025°19'0 0.0
2018-Jun-24 18:00N 37°28' E 025°19'6 8.5
2018-Jun-24 17:17N 37°33' E 025°23'516.3
2018-Jun-24 17:00N 37°37' E 025°27'816.1
2018-Jun-24 16:30N 37°42' E 025°34'  
2018-Jun-22 04:03N 36°59' E 025°17'012.7
2018-Jun-22 04:01N 36°60' E 025°17'612.7
2018-Jun-22 03:31N 37°06' E 025°19'611.9
2018-Jun-22 03:01N 37°12' E 025°18'612.2
2018-Jun-22 02:31N 37°17' E 025°14'612.2
2018-Jun-22 02:00N 37°23' E 025°11'5 9.9
2018-Jun-22 01:31N 37°27' E 025°12'510.9
2018-Jun-22 01:00N 37°28' E 025°19'0 0.2
2018-Jun-22 00:29N 37°28' E 025°19'0 0.0
2018-Jun-21 23:59N 37°28' E 025°19'0 0.0
2018-Jun-21 23:26N 37°28' E 025°19'0 0.0
2018-Jun-21 22:59N 37°28' E 025°19'0 0.0
2018-Jun-21 22:23N 37°28' E 025°19'0 0.0
2018-Jun-21 21:59N 37°28' E 025°19'0 0.0
2018-Jun-21 21:29N 37°28' E 025°19'0 0.0
2018-Jun-21 20:59N 37°28' E 025°19'0 0.0
2018-Jun-21 20:29N 37°28' E 025°19'0 0.0
2018-Jun-21 19:59N 37°28' E 025°19'0 0.0
2018-Jun-21 19:29N 37°28' E 025°19'0 0.0
2018-Jun-21 18:59N 37°28' E 025°19'0 0.0
2018-Jun-21 18:29N 37°28' E 025°19'0 0.0
2018-Jun-21 17:59N 37°28' E 025°19'0 0.0
2018-Jun-21 17:29N 37°28' E 025°19'0 0.0
2018-Jun-21 16:59N 37°28' E 025°19'0 0.2
2018-Jun-21 16:31N 37°28' E 025°19'510.1
2018-Jun-21 15:58N 37°33' E 025°22'715.6
2018-Jun-21 15:30N 37°38' E 025°29'815.8
2018-Jun-21 14:59N 37°43' E 025°36'84 4.0
2018-Jun-20 17:56N 37°37' E 023°50'613.8
2018-Jun-20 17:31N 37°39' E 023°43'713.9
2018-Jun-20 17:01N 37°45' E 023°39'714.7
2018-Jun-20 16:30N 37°52' E 023°37'4 8.7
2018-Jun-20 16:00N 37°56' E 023°38'0 0.0
2018-Jun-20 15:30N 37°56' E 023°38'0 0.0
2018-Jun-20 15:00N 37°56' E 023°38'0 0.0
2018-Jun-20 14:30N 37°56' E 023°38'0 0.0
2018-Jun-20 14:00N 37°56' E 023°38'0 0.0
2018-Jun-20 13:30N 37°56' E 023°38'0 0.0
2018-Jun-20 13:00N 37°56' E 023°38'0 0.0
2018-Jun-20 12:30N 37°56' E 023°38'0 0.0
2018-Jun-20 12:00N 37°56' E 023°38'0 0.0
2018-Jun-20 11:30N 37°56' E 023°38'0 0.0
2018-Jun-20 11:00N 37°56' E 023°38'0 0.0
2018-Jun-20 10:30N 37°56' E 023°38'0 0.0
2018-Jun-20 10:00N 37°56' E 023°38'0 0.0
2018-Jun-20 09:30N 37°56' E 023°38'0 0.0
2018-Jun-20 09:00N 37°56' E 023°38'0 0.0
2018-Jun-20 08:30N 37°56' E 023°38'0 0.0
2018-Jun-20 08:00N 37°56' E 023°38'0 0.0
2018-Jun-20 07:30N 37°56' E 023°38'1 2.9
2018-Jun-20 07:00N 37°55' E 023°37'713.5
2018-Jun-20 06:31N 37°49' E 023°41'815.7
2018-Jun-20 06:01N 37°42' E 023°45'815.5
2018-Jun-20 05:30N 37°38' E 023°53'4315.6
2018-Jun-20 02:44N 37°23' E 024°44'416.5
2018-Jun-20 02:31N 37°21' E 024°48'816.4
2018-Jun-20 02:01N 37°19' E 024°58'816.7
2018-Jun-20 01:31N 37°18' E 025°08'816.5
2018-Jun-20 01:01N 37°16' E 025°19'816.5
2018-Jun-20 00:31N 37°15' E 025°29'816.0
2018-Jun-20 00:00N 37°13' E 025°39'22 0.5
2018-Jun-18 03:57N 36°59' E 025°17'613.7
2018-Jun-18 03:30N 37°05' E 025°19'610.9
2018-Jun-18 03:00N 37°11' E 025°18'611.6
2018-Jun-18 02:30N 37°16' E 025°15'611.7
2018-Jun-18 02:00N 37°21' E 025°12'510.8
2018-Jun-18 01:30N 37°26' E 025°10'611.3
2018-Jun-18 01:00N 37°28' E 025°17'2 3.2
2018-Jun-18 00:26N 37°28' E 025°19'0 0.0
2018-Jun-17 23:59N 37°28' E 025°19'0 0.0
2018-Jun-17 23:29N 37°28' E 025°19'0 0.0
2018-Jun-17 22:59N 37°28' E 025°19'0 0.0
2018-Jun-17 22:29N 37°28' E 025°19'0 0.0
2018-Jun-17 21:59N 37°28' E 025°19'0 0.0
2018-Jun-17 21:29N 37°28' E 025°19'0 0.0
2018-Jun-17 20:59N 37°28' E 025°19'0 0.0
2018-Jun-17 20:29N 37°28' E 025°19'0 0.0
2018-Jun-17 19:59N 37°28' E 025°19'0 0.0
2018-Jun-17 19:29N 37°28' E 025°19'0 0.0
2018-Jun-17 18:59N 37°28' E 025°19'0 0.0
2018-Jun-17 18:29N 37°28' E 025°19'0 0.0
2018-Jun-17 17:59N 37°28' E 025°19'0 0.0
2018-Jun-17 17:29N 37°28' E 025°19'0 0.0
2018-Jun-17 17:00N 37°28' E 025°19'0 0.3
2018-Jun-17 16:30N 37°28' E 025°19'612.3
2018-Jun-17 16:00N 37°33' E 025°22'815.9
2018-Jun-17 15:30N 37°39' E 025°30'816.1
2018-Jun-17 15:00N 37°44' E 025°37'84 3.8
2018-Jun-16 17:06N 37°37' E 023°51'112.9
2018-Jun-16 17:00N 37°37' E 023°50'612.6
2018-Jun-16 16:30N 37°40' E 023°42'510.9
2018-Jun-16 16:00N 37°45' E 023°39'5 9.5
2018-Jun-16 15:30N 37°49' E 023°37'611.9
2018-Jun-16 15:00N 37°55' E 023°37'2 3.2
2018-Jun-16 14:31N 37°56' E 023°38'0 0.0
2018-Jun-16 14:01N 37°56' E 023°38'0 0.0
2018-Jun-16 13:29N 37°56' E 023°38'0 0.0
2018-Jun-16 12:59N 37°56' E 023°38'0 0.0
2018-Jun-16 12:29N 37°56' E 023°38'0 0.0
2018-Jun-16 11:59N 37°56' E 023°38'0 0.0
2018-Jun-16 11:29N 37°56' E 023°38'0 0.0
2018-Jun-16 10:59N 37°56' E 023°38'0 0.0
2018-Jun-16 10:29N 37°56' E 023°38'0 0.0
2018-Jun-16 09:59N 37°56' E 023°38'0 0.0
2018-Jun-16 09:29N 37°56' E 023°38'0 0.0
2018-Jun-16 08:59N 37°56' E 023°38'0 0.0
2018-Jun-16 08:29N 37°56' E 023°38'0 0.0
2018-Jun-16 07:59N 37°56' E 023°38'0 0.0
2018-Jun-16 07:29N 37°56' E 023°38'0 0.0
2018-Jun-16 06:59N 37°56' E 023°38'0 0.0
2018-Jun-16 06:29N 37°56' E 023°38'0 1.0
2018-Jun-16 06:00N 37°56' E 023°37'3 6.6
2018-Jun-16 05:30N 37°53' E 023°38'611.1
2018-Jun-16 05:00N 37°48' E 023°41'611.1
2018-Jun-16 04:30N 37°43' E 023°44'611.2
2018-Jun-16 04:00N 37°38' E 023°46'82 3.4
2018-Jun-15 03:56N 36°59' E 025°17'  

Dump ship's entire track history